Time;durP1;ratioP1;P1;durP2;ratioP2;P2;SDS_P1;SDS_P2;PMS_P1;PMS_P2;Temp;Humidity;BMP_temperature;BMP_pressure;BME280_temperature;BME280_humidity;BME280_pressure;Samples;Min_cycle;Max_cycle;Signal;HPM_P1;HPM_P2
2022/11/24 00:00:16;;;;;;;;;;;;;;;;;;5028164;28;19926;-57
2022/11/24 00:02:42;;;;;;;;;;;;;;;;;;5027832;28;20120;-57
2022/11/24 00:05:08;;;;;;;;;;;;;;;;;;5028572;28;20024;-58
2022/11/24 00:07:34;;;;;;;;;;;;;;;;;;5027921;28;20050;-58
2022/11/24 00:10:00;;;;;;;;;;;;;;;;;;5029134;28;20505;-59
2022/11/24 00:12:26;;;;;;;;;;;;;;;;;;5010380;28;20035;-58
2022/11/24 00:14:52;;;;;;;;;;;;;;;;;;5026865;28;20045;-59
2022/11/24 00:17:18;;;;;;;;;;;;;;;;;;5027424;28;19932;-58
2022/11/24 00:19:44;;;;;;;;;;;;;;;;;;5027478;28;19925;-59
2022/11/24 00:22:10;;;;;;;;;;;;;;;;;;5027841;28;19925;-54
2022/11/24 00:24:36;;;;;;;;;;;;;;;;;;5028002;28;19925;-58
2022/11/24 00:27:02;;;;;;;;;;;;;;;;;;5027917;28;20824;-57
2022/11/24 00:29:28;;;;;;;;;;;;;;;;;;5027338;28;19925;-58
2022/11/24 00:31:54;;;;;;;;;;;;;;;;;;5028025;28;19925;-58
2022/11/24 00:34:20;;;;;;;;;;;;;;;;;;5027185;28;19931;-59
2022/11/24 00:36:46;;;;;;;;;;;;;;;;;;5027112;28;19933;-59
2022/11/24 00:39:12;;;;;;;;;;;;;;;;;;5027288;28;19932;-59
2022/11/24 00:41:38;;;;;;;;;;;;;;;;;;5027460;28;19925;-58
2022/11/24 00:44:04;;;;;;;;;;;;;;;;;;5026758;28;19936;-59
2022/11/24 00:46:30;;;;;;;;;;;;;;;;;;5027214;28;20413;-60
2022/11/24 00:48:56;;;;;;;;;;;;;;;;;;5027330;28;20398;-58
2022/11/24 00:51:22;;;;;;;;;;;;;;;;;;5027385;28;19947;-59
2022/11/24 00:53:48;;;;;;;;;;;;;;;;;;5026014;28;20382;-57
2022/11/24 00:56:14;;;;;;;;;;;;;;;;;;5026818;28;19933;-59
2022/11/24 00:58:40;;;;;;;;;;;;;;;;;;5026298;28;19972;-58
2022/11/24 01:01:06;;;;;;;;;;;;;;;;;;5027127;28;19971;-56
2022/11/24 01:03:32;;;;;;;;;;;;;;;;;;5027134;28;19921;-58
2022/11/24 01:05:58;;;;;;;;;;;;;;;;;;5027314;28;19940;-59
2022/11/24 01:08:24;;;;;;;;;;;;;;;;;;5027320;28;19929;-58
2022/11/24 01:10:50;;;;;;;;;;;;;;;;;;5026502;28;20286;-59
2022/11/24 01:13:16;;;;;;;;;;;;;;;;;;5005319;28;20355;-58
2022/11/24 01:15:42;;;;;;;;;;;;;;;;;;5026971;28;19932;-58
2022/11/24 01:18:08;;;;;;;;;;;;;;;;;;5026640;28;19925;-59
2022/11/24 01:20:34;;;;;;;;;;;;;;;;;;5024810;28;19933;-56
2022/11/24 01:23:00;;;;;;;;;;;;;;;;;;5027104;28;19932;-59
2022/11/24 01:25:26;;;;;;;;;;;;;;;;;;5027067;28;20287;-58
2022/11/24 01:27:52;;;;;;;;;;;;;;;;;;5025934;28;19925;-59
2022/11/24 01:30:18;;;;;;;;;;;;;;;;;;5026105;28;19925;-58
2022/11/24 01:32:44;;;;;;;;;;;;;;;;;;5025961;28;20423;-59
2022/11/24 01:35:10;;;;;;;;;;;;;;;;;;5026199;28;20287;-59
2022/11/24 01:37:36;;;;;;;;;;;;;;;;;;5026382;28;20371;-57
2022/11/24 01:40:02;;;;;;;;;;;;;;;;;;5026395;28;19925;-58
2022/11/24 01:42:28;;;;;;;;;;;;;;;;;;5024916;28;19929;-59
2022/11/24 01:44:54;;;;;;;;;;;;;;;;;;5026810;28;20012;-59
2022/11/24 01:47:20;;;;;;;;;;;;;;;;;;5026305;28;20002;-59
2022/11/24 01:49:46;;;;;;;;;;;;;;;;;;5025828;28;20363;-58
2022/11/24 01:52:12;;;;;;;;;;;;;;;;;;5004696;28;19950;-54
2022/11/24 01:54:38;;;;;;;;;;;;;;;;;;5026183;28;19925;-59
2022/11/24 01:57:04;;;;;;;;;;;;;;;;;;5026533;28;19926;-57
2022/11/24 01:59:30;;;;;;;;;;;;;;;;;;5025295;28;20322;-58
2022/11/24 02:01:56;;;;;;;;;;;;;;;;;;5022923;28;19925;-59
2022/11/24 02:04:22;;;;;;;;;;;;;;;;;;5008409;28;19925;-59
2022/11/24 02:06:48;;;;;;;;;;;;;;;;;;5028376;28;20036;-58
2022/11/24 02:09:14;;;;;;;;;;;;;;;;;;5030089;28;20032;-59
2022/11/24 02:11:40;;;;;;;;;;;;;;;;;;5030205;28;20455;-58
2022/11/24 02:14:06;;;;;;;;;;;;;;;;;;5083490;22;19925;-59
2022/11/24 02:16:32;;;;;;;;;;;;;;;;;;5011019;28;19925;-59
2022/11/24 02:18:58;;;;;;;;;;;;;;;;;;5011473;28;20382;-59
2022/11/24 02:21:24;;;;;;;;;;;;;;;;;;5010696;28;19999;-58
2022/11/24 02:23:50;;;;;;;;;;;;;;;;;;5010201;28;19989;-59
2022/11/24 02:26:16;;;;;;;;;;;;;;;;;;5010162;28;19926;-59
2022/11/24 02:28:42;;;;;;;;;;;;;;;;;;5009321;28;19932;-56
2022/11/24 02:31:09;;;;;;;;;;;;;;;;;;5010577;28;19948;-59
2022/11/24 02:33:35;;;;;;;;;;;;;;;;;;5009976;28;20371;-59
2022/11/24 02:36:01;;;;;;;;;;;;;;;;;;5010357;28;20389;-60
2022/11/24 02:38:27;;;;;;;;;;;;;;;;;;5009755;28;19926;-59
2022/11/24 02:40:53;;;;;;;;;;;;;;;;;;5010073;28;19925;-59
2022/11/24 02:43:19;;;;;;;;;;;;;;;;;;5009106;28;20310;-58
2022/11/24 02:45:45;;;;;;;;;;;;;;;;;;5010004;28;19933;-59
2022/11/24 02:48:11;;;;;;;;;;;;;;;;;;5010403;28;20286;-59
2022/11/24 02:50:37;;;;;;;;;;;;;;;;;;5009814;28;19925;-59
2022/11/24 02:53:03;;;;;;;;;;;;;;;;;;5009877;28;19926;-59
2022/11/24 02:55:29;;;;;;;;;;;;;;;;;;5009840;28;19940;-59
2022/11/24 02:57:55;;;;;;;;;;;;;;;;;;5008808;28;20462;-58
2022/11/24 03:00:21;;;;;;;;;;;;;;;;;;5009315;28;20003;-59
2022/11/24 03:02:47;;;;;;;;;;;;;;;;;;4991728;28;20323;-58
2022/11/24 03:05:13;;;;;;;;;;;;;;;;;;5004557;28;19930;-59
2022/11/24 03:07:39;;;;;;;;;;;;;;;;;;5009407;28;19926;-59
2022/11/24 03:10:05;;;;;;;;;;;;;;;;;;5009873;28;19929;-59
2022/11/24 03:12:31;;;;;;;;;;;;;;;;;;5008278;28;19984;-56
2022/11/24 03:14:57;;;;;;;;;;;;;;;;;;5009531;28;19925;-58
2022/11/24 03:17:23;;;;;;;;;;;;;;;;;;5007897;28;20019;-58
2022/11/24 03:19:49;;;;;;;;;;;;;;;;;;5009048;28;20029;-58
2022/11/24 03:22:15;;;;;;;;;;;;;;;;;;5009076;28;20004;-59
2022/11/24 03:24:41;;;;;;;;;;;;;;;;;;5008951;28;19926;-59
2022/11/24 03:27:07;;;;;;;;;;;;;;;;;;5008364;28;19972;-59
2022/11/24 03:29:33;;;;;;;;;;;;;;;;;;4991460;28;19973;-59
2022/11/24 03:32:00;;;;;;;;;;;;;;;;;;5009589;28;20012;-59
2022/11/24 03:34:26;;;;;;;;;;;;;;;;;;5009237;28;19926;-54
2022/11/24 03:36:52;;;;;;;;;;;;;;;;;;5008888;28;19932;-58
2022/11/24 03:39:18;;;;;;;;;;;;;;;;;;5008438;28;20382;-59
2022/11/24 03:41:44;;;;;;;;;;;;;;;;;;5008967;28;20432;-59
2022/11/24 03:44:10;;;;;;;;;;;;;;;;;;5008189;28;19925;-59
2022/11/24 03:46:36;;;;;;;;;;;;;;;;;;5009137;28;19932;-59
2022/11/24 03:49:02;;;;;;;;;;;;;;;;;;5008876;28;19948;-59
2022/11/24 03:51:28;;;;;;;;;;;;;;;;;;5009411;28;19925;-59
2022/11/24 03:53:54;;;;;;;;;;;;;;;;;;5009171;28;19926;-59
2022/11/24 03:56:20;;;;;;;;;;;;;;;;;;5008717;28;19989;-59
2022/11/24 03:58:46;;;;;;;;;;;;;;;;;;5007068;28;19933;-56
2022/11/24 04:01:12;;;;;;;;;;;;;;;;;;5008818;28;19926;-58
2022/11/24 04:03:38;;;;;;;;;;;;;;;;;;5005979;28;19929;-59
2022/11/24 04:06:04;;;;;;;;;;;;;;;;;;5008722;28;19932;-57
2022/11/24 04:08:30;;;;;;;;;;;;;;;;;;5008300;28;19933;-59
2022/11/24 04:10:56;;;;;;;;;;;;;;;;;;5008888;28;19925;-58
2022/11/24 04:13:22;;;;;;;;;;;;;;;;;;5007542;28;19952;-59
2022/11/24 04:15:48;;;;;;;;;;;;;;;;;;5004009;28;19960;-59
2022/11/24 04:18:14;;;;;;;;;;;;;;;;;;5008459;28;19959;-59
2022/11/24 04:20:40;;;;;;;;;;;;;;;;;;5008233;28;19952;-59
2022/11/24 04:23:06;;;;;;;;;;;;;;;;;;5008598;28;20399;-59
2022/11/24 04:25:32;;;;;;;;;;;;;;;;;;5007796;28;20449;-59
2022/11/24 04:27:58;;;;;;;;;;;;;;;;;;4990022;28;20016;-59
2022/11/24 04:30:24;;;;;;;;;;;;;;;;;;5007831;28;20375;-58
2022/11/24 04:32:50;;;;;;;;;;;;;;;;;;5007791;28;19929;-57
2022/11/24 04:35:16;;;;;;;;;;;;;;;;;;5007673;28;19948;-59
2022/11/24 04:37:42;;;;;;;;;;;;;;;;;;5007919;28;20349;-57
2022/11/24 04:40:08;;;;;;;;;;;;;;;;;;5008251;28;20399;-59
2022/11/24 04:42:34;;;;;;;;;;;;;;;;;;4987088;28;20036;-59
2022/11/24 04:45:00;;;;;;;;;;;;;;;;;;5007910;28;20291;-59
2022/11/24 04:47:26;;;;;;;;;;;;;;;;;;5008357;28;19925;-59
2022/11/24 04:49:52;;;;;;;;;;;;;;;;;;5007470;28;19925;-59
2022/11/24 04:52:18;;;;;;;;;;;;;;;;;;5007664;28;19973;-58
2022/11/24 04:54:44;;;;;;;;;;;;;;;;;;5006909;28;20385;-59
2022/11/24 04:57:10;;;;;;;;;;;;;;;;;;5006763;28;19925;-59
2022/11/24 04:59:36;;;;;;;;;;;;;;;;;;5010644;28;19980;-60
2022/11/24 05:02:02;;;;;;;;;;;;;;;;;;5007842;28;19926;-59
2022/11/24 05:04:28;;;;;;;;;;;;;;;;;;5007603;28;19925;-59
2022/11/24 05:06:54;;;;;;;;;;;;;;;;;;5008159;28;19932;-59
2022/11/24 05:09:20;;;;;;;;;;;;;;;;;;5007379;28;19980;-59
2022/11/24 05:11:46;;;;;;;;;;;;;;;;;;5006484;28;19926;-59
2022/11/24 05:14:12;;;;;;;;;;;;;;;;;;5006061;28;20379;-57
2022/11/24 05:16:38;;;;;;;;;;;;;;;;;;5006959;28;19925;-59
2022/11/24 05:19:04;;;;;;;;;;;;;;;;;;5007320;28;20299;-59
2022/11/24 05:21:30;;;;;;;;;;;;;;;;;;5003158;28;19925;-59
2022/11/24 05:23:56;;;;;;;;;;;;;;;;;;5007547;28;19972;-58
2022/11/24 05:26:22;;;;;;;;;;;;;;;;;;5006996;28;20488;-58
2022/11/24 05:28:48;;;;;;;;;;;;;;;;;;5006305;28;19926;-59
2022/11/24 05:31:14;;;;;;;;;;;;;;;;;;5007447;28;19935;-59
2022/11/24 05:33:42;;;;;;;;;;;;;;;;;;5006093;28;19965;-59
2022/11/24 05:36:51;;;;;;;;;;;;;;;;;;5007299;28;19926;-57
2022/11/24 05:38:54;;;;;;;;;;;;;;;;;;5006579;28;20607;-59
2022/11/24 05:41:20;;;;;;;;;;;;;;;;;;5007023;28;19935;-57
2022/11/24 05:43:46;;;;;;;;;;;;;;;;;;5006036;28;19925;-58
2022/11/24 05:46:12;;;;;;;;;;;;;;;;;;5006807;28;19925;-59
2022/11/24 05:48:38;;;;;;;;;;;;;;;;;;5006524;28;19934;-59
2022/11/24 05:51:04;;;;;;;;;;;;;;;;;;5004305;28;20284;-59
2022/11/24 05:53:30;;;;;;;;;;;;;;;;;;5005713;28;21639;-59
2022/11/24 05:55:56;;;;;;;;;;;;;;;;;;5006727;28;19932;-59
2022/11/24 05:58:22;;;;;;;;;;;;;;;;;;5005931;28;20007;-59
2022/11/24 06:00:48;;;;;;;;;;;;;;;;;;5006697;28;19925;-59
2022/11/24 06:03:14;;;;;;;;;;;;;;;;;;5006123;28;19933;-59
2022/11/24 06:05:40;;;;;;;;;;;;;;;;;;5005432;28;20479;-59
2022/11/24 06:08:06;;;;;;;;;;;;;;;;;;5006567;28;19936;-58
2022/11/24 06:10:32;;;;;;;;;;;;;;;;;;5006878;28;19926;-59
2022/11/24 06:12:58;;;;;;;;;;;;;;;;;;5005849;28;19932;-58
2022/11/24 06:15:24;;;;;;;;;;;;;;;;;;5006692;28;20604;-59
2022/11/24 06:17:50;;;;;;;;;;;;;;;;;;5006239;28;19975;-59
2022/11/24 06:20:16;;;;;;;;;;;;;;;;;;5006242;28;19929;-59
2022/11/24 06:22:42;;;;;;;;;;;;;;;;;;5006104;28;19929;-59
2022/11/24 06:25:08;;;;;;;;;;;;;;;;;;5006977;28;19930;-59
2022/11/24 06:27:34;;;;;;;;;;;;;;;;;;5004851;28;20405;-60
2022/11/24 06:30:00;;;;;;;;;;;;;;;;;;5004164;28;19929;-56
2022/11/24 06:32:26;;;;;;;;;;;;;;;;;;5005908;28;19921;-59
2022/11/24 06:34:52;;;;;;;;;;;;;;;;;;5001487;28;19933;-59
2022/11/24 06:37:18;;;;;;;;;;;;;;;;;;5006977;28;20374;-60
2022/11/24 06:39:44;;;;;;;;;;;;;;;;;;5006535;28;20027;-59
2022/11/24 06:42:10;;;;;;;;;;;;;;;;;;5005830;28;19932;-60
2022/11/24 06:44:36;;;;;;;;;;;;;;;;;;5006869;28;19926;-59
2022/11/24 06:47:02;;;;;;;;;;;;;;;;;;5006600;28;19925;-57
2022/11/24 06:49:28;;;;;;;;;;;;;;;;;;5007433;28;19932;-58
2022/11/24 06:51:54;;;;;;;;;;;;;;;;;;5008313;28;20367;-60
2022/11/24 06:54:21;;;;;;;;;;;;;;;;;;5010908;28;20282;-59
2022/11/24 06:56:47;;;;;;;;;;;;;;;;;;5003414;28;19973;-56
2022/11/24 06:59:13;;;;;;;;;;;;;;;;;;5010548;28;20611;-60
2022/11/24 07:01:39;;;;;;;;;;;;;;;;;;5009913;28;19925;-58
2022/11/24 07:04:05;;;;;;;;;;;;;;;;;;5010239;28;19967;-59
2022/11/24 07:06:31;;;;;;;;;;;;;;;;;;4990971;28;20438;-59
2022/11/24 07:08:57;;;;;;;;;;;;;;;;;;5010941;28;19926;-59
2022/11/24 07:11:23;;;;;;;;;;;;;;;;;;5009191;28;19925;-59
2022/11/24 07:13:50;;;;;;;;;;;;;;;;;;5009341;28;19929;-59
2022/11/24 07:16:16;;;;;;;;;;;;;;;;;;5009699;28;19925;-59
2022/11/24 07:18:42;;;;;;;;;;;;;;;;;;5009828;28;19933;-58
2022/11/24 07:21:08;;;;;;;;;;;;;;;;;;5009861;28;19926;-60
2022/11/24 07:23:34;;;;;;;;;;;;;;;;;;5009710;28;19929;-59
2022/11/24 07:26:00;;;;;;;;;;;;;;;;;;5010066;28;20411;-59
2022/11/24 07:28:26;;;;;;;;;;;;;;;;;;5009506;28;20012;-59
2022/11/24 07:30:52;;;;;;;;;;;;;;;;;;5009405;28;19930;-56
2022/11/24 07:33:20;;;;;;;;;;;;;;;;;;5008698;28;20415;-56
2022/11/24 07:35:46;;;;;;;;;;;;;;;;;;5009270;28;19925;-59
2022/11/24 07:38:12;;;;;;;;;;;;;;;;;;5009770;28;20409;-58
2022/11/24 07:40:38;;;;;;;;;;;;;;;;;;5009414;28;19926;-57
2022/11/24 07:43:04;;;;;;;;;;;;;;;;;;5009191;28;19940;-59
2022/11/24 07:45:30;;;;;;;;;;;;;;;;;;5009564;28;19926;-59
2022/11/24 07:47:56;;;;;;;;;;;;;;;;;;5009426;28;19936;-59
2022/11/24 07:50:22;;;;;;;;;;;;;;;;;;5009293;28;19929;-60
2022/11/24 07:52:48;;;;;;;;;;;;;;;;;;5008887;28;19925;-59
2022/11/24 07:55:14;;;;;;;;;;;;;;;;;;5008023;28;20012;-59
2022/11/24 07:57:40;;;;;;;;;;;;;;;;;;5003118;28;20017;-60
2022/11/24 08:00:06;;;;;;;;;;;;;;;;;;5008453;28;20012;-58
2022/11/24 08:02:32;;;;;;;;;;;;;;;;;;5007855;28;20370;-59
2022/11/24 08:04:58;;;;;;;;;;;;;;;;;;5008086;28;19964;-58
2022/11/24 08:07:24;;;;;;;;;;;;;;;;;;5008824;28;19932;-58
2022/11/24 08:09:51;;;;;;;;;;;;;;;;;;5008191;28;20008;-59
2022/11/24 08:12:20;;;;;;;;;;;;;;;;;;5003465;28;20432;-56
2022/11/24 08:14:46;;;;;;;;;;;;;;;;;;5004596;28;20367;-59
2022/11/24 08:17:12;;;;;;;;;;;;;;;;;;5005732;28;19934;-58
2022/11/24 08:19:38;;;;;;;;;;;;;;;;;;5005999;28;19925;-59
2022/11/24 08:22:04;;;;;;;;;;;;;;;;;;5005612;28;19933;-57
2022/11/24 08:24:30;;;;;;;;;;;;;;;;;;5005784;28;19929;-59
2022/11/24 08:26:56;;;;;;;;;;;;;;;;;;5005780;28;19971;-59
2022/11/24 08:29:22;;;;;;;;;;;;;;;;;;5005562;28;19925;-59
2022/11/24 08:31:48;;;;;;;;;;;;;;;;;;5005925;28;19960;-59
2022/11/24 08:34:14;;;;;;;;;;;;;;;;;;5005780;28;19972;-59
2022/11/24 08:36:40;;;;;;;;;;;;;;;;;;5005381;28;19969;-59
2022/11/24 08:39:06;;;;;;;;;;;;;;;;;;5005568;28;20033;-56
2022/11/24 08:41:32;;;;;;;;;;;;;;;;;;5004412;28;20678;-59
2022/11/24 08:43:58;;;;;;;;;;;;;;;;;;5006455;28;19929;-58
2022/11/24 08:46:24;;;;;;;;;;;;;;;;;;5006504;28;20003;-59
2022/11/24 08:48:50;;;;;;;;;;;;;;;;;;5005518;28;20027;-59
2022/11/24 08:51:16;;;;;;;;;;;;;;;;;;5006001;28;20450;-59
2022/11/24 08:53:42;;;;;;;;;;;;;;;;;;5005878;28;19930;-59
2022/11/24 08:56:08;;;;;;;;;;;;;;;;;;5004642;28;20016;-59
2022/11/24 08:58:34;;;;;;;;;;;;;;;;;;4986769;28;20685;-58
2022/11/24 09:01:00;;;;;;;;;;;;;;;;;;5005091;28;20039;-59
2022/11/24 09:03:28;;;;;;;;;;;;;;;;;;4984084;28;21248;-58
2022/11/24 09:05:54;;;;;;;;;;;;;;;;;;5006099;28;20405;-59
2022/11/24 09:08:20;;;;;;;;;;;;;;;;;;5005121;28;19925;-59
2022/11/24 09:10:46;;;;;;;;;;;;;;;;;;5005509;28;19930;-59
2022/11/24 09:13:12;;;;;;;;;;;;;;;;;;5004577;28;19934;-59
2022/11/24 09:15:38;;;;;;;;;;;;;;;;;;5005089;28;19984;-59
2022/11/24 09:18:04;;;;;;;;;;;;;;;;;;5005105;28;19929;-57
2022/11/24 09:20:30;;;;;;;;;;;;;;;;;;5004304;28;19940;-59
2022/11/24 09:22:56;;;;;;;;;;;;;;;;;;5005245;28;19929;-59
2022/11/24 09:25:22;;;;;;;;;;;;;;;;;;5005261;28;20457;-59
2022/11/24 09:27:48;;;;;;;;;;;;;;;;;;5004438;28;19925;-58
2022/11/24 09:30:14;;;;;;;;;;;;;;;;;;5004687;28;19936;-55
2022/11/24 09:32:40;;;;;;;;;;;;;;;;;;5004590;28;19983;-59
2022/11/24 09:35:06;;;;;;;;;;;;;;;;;;5004886;28;19995;-59
2022/11/24 09:37:32;;;;;;;;;;;;;;;;;;5004135;28;19995;-64
2022/11/24 09:39:58;;;;;;;;;;;;;;;;;;5005691;28;19929;-58
2022/11/24 09:42:24;;;;;;;;;;;;;;;;;;5004780;28;19984;-59
2022/11/24 09:44:50;;;;;;;;;;;;;;;;;;5005087;28;19929;-58
2022/11/24 09:47:16;;;;;;;;;;;;;;;;;;5004958;28;20294;-58
2022/11/24 09:49:42;;;;;;;;;;;;;;;;;;5004955;28;20016;-58
2022/11/24 09:52:08;;;;;;;;;;;;;;;;;;5005064;28;19953;-58
2022/11/24 09:54:34;;;;;;;;;;;;;;;;;;5004337;28;21558;-58
2022/11/24 09:57:00;;;;;;;;;;;;;;;;;;5003834;28;19929;-59
2022/11/24 09:59:27;;;;;;;;;;;;;;;;;;5004883;28;19940;-58
2022/11/24 10:01:54;;;;;;;;;;;;;;;;;;5004583;28;19929;-58
2022/11/24 10:04:20;;;;;;;;;;;;;;;;;;5004711;28;19925;-58
2022/11/24 10:06:46;;;;;;;;;;;;;;;;;;5004403;28;20405;-58
2022/11/24 10:09:12;;;;;;;;;;;;;;;;;;5004762;28;19930;-58
2022/11/24 10:11:38;;;;;;;;;;;;;;;;;;5003601;28;19929;-59
2022/11/24 10:14:04;;;;;;;;;;;;;;;;;;5004172;28;20387;-58
2022/11/24 10:16:30;;;;;;;;;;;;;;;;;;5003527;28;19940;-59
2022/11/24 10:18:56;;;;;;;;;;;;;;;;;;5005047;28;19991;-59
2022/11/24 10:21:22;;;;;;;;;;;;;;;;;;5004165;28;20425;-57
2022/11/24 10:23:48;;;;;;;;;;;;;;;;;;5003981;28;20490;-58
2022/11/24 10:26:14;;;;;;;;;;;;;;;;;;5003474;28;19929;-59
2022/11/24 10:28:40;;;;;;;;;;;;;;;;;;5007790;28;19956;-58
2022/11/24 10:31:06;;;;;;;;;;;;;;;;;;5008431;28;20331;-59
2022/11/24 10:33:32;;;;;;;;;;;;;;;;;;5005231;28;20371;-58
2022/11/24 10:35:58;;;;;;;;;;;;;;;;;;5007911;28;19936;-58
2022/11/24 10:38:24;;;;;;;;;;;;;;;;;;5008110;28;19933;-60
2022/11/24 10:40:50;;;;;;;;;;;;;;;;;;5006901;28;20490;-59
2022/11/24 10:43:16;;;;;;;;;;;;;;;;;;5007936;28;19933;-59
2022/11/24 10:45:42;;;;;;;;;;;;;;;;;;5005377;28;19936;-59
2022/11/24 10:48:08;;;;;;;;;;;;;;;;;;5007965;28;19929;-59
2022/11/24 10:50:35;;;;;;;;;;;;;;;;;;5007512;28;19932;-59
2022/11/24 10:53:01;;;;;;;;;;;;;;;;;;5006776;28;19925;-55
2022/11/24 10:55:27;;;;;;;;;;;;;;;;;;5007941;28;19925;-58
2022/11/24 10:57:53;;;;;;;;;;;;;;;;;;5004831;28;19971;-58
2022/11/24 11:00:19;;;;;;;;;;;;;;;;;;5007873;28;20608;-58
2022/11/24 11:02:45;;;;;;;;;;;;;;;;;;5007478;28;19930;-58
2022/11/24 11:05:11;;;;;;;;;;;;;;;;;;5007622;28;19940;-59
2022/11/24 11:07:37;;;;;;;;;;;;;;;;;;5006917;28;20303;-59
2022/11/24 11:10:03;;;;;;;;;;;;;;;;;;5007598;28;19925;-57
2022/11/24 11:12:29;;;;;;;;;;;;;;;;;;5006850;28;19929;-56
2022/11/24 11:14:55;;;;;;;;;;;;;;;;;;5008541;28;20535;-59
2022/11/24 11:17:21;;;;;;;;;;;;;;;;;;5008067;28;19925;-58
2022/11/24 11:19:48;;;;;;;;;;;;;;;;;;5007599;28;19930;-56
2022/11/24 11:22:14;;;;;;;;;;;;;;;;;;5008327;28;19929;-58
2022/11/24 11:24:40;;;;;;;;;;;;;;;;;;5007507;28;20012;-59
2022/11/24 11:27:06;;;;;;;;;;;;;;;;;;5007079;28;20519;-57
2022/11/24 11:29:32;;;;;;;;;;;;;;;;;;5006514;28;19987;-58
2022/11/24 11:31:58;;;;;;;;;;;;;;;;;;5010768;28;20275;-58
2022/11/24 11:34:24;;;;;;;;;;;;;;;;;;5006485;28;19932;-58
2022/11/24 11:36:50;;;;;;;;;;;;;;;;;;5005969;28;19930;-58
2022/11/24 11:39:16;;;;;;;;;;;;;;;;;;5005853;28;19925;-59
2022/11/24 11:41:42;;;;;;;;;;;;;;;;;;5005440;28;19937;-59
2022/11/24 11:44:08;;;;;;;;;;;;;;;;;;5006267;28;19971;-59
2022/11/24 11:46:34;;;;;;;;;;;;;;;;;;5005842;28;19975;-58
2022/11/24 11:49:00;;;;;;;;;;;;;;;;;;5005655;28;19929;-58
2022/11/24 11:51:26;;;;;;;;;;;;;;;;;;5008330;28;19933;-59
2022/11/24 11:53:52;;;;;;;;;;;;;;;;;;5005812;28;19929;-55
2022/11/24 11:56:18;;;;;;;;;;;;;;;;;;5004734;28;19937;-58
2022/11/24 11:58:44;;;;;;;;;;;;;;;;;;5010098;28;19933;-58
2022/11/24 12:01:11;;;;;;;;;;;;;;;;;;5006379;28;20304;-58
2022/11/24 12:03:37;;;;;;;;;;;;;;;;;;5006058;28;19925;-58
2022/11/24 12:06:03;;;;;;;;;;;;;;;;;;5005976;28;19936;-58
2022/11/24 12:08:29;;;;;;;;;;;;;;;;;;5005311;28;19925;-57
2022/11/24 12:10:55;;;;;;;;;;;;;;;;;;5003920;28;19930;-55
2022/11/24 12:13:21;;;;;;;;;;;;;;;;;;5004413;28;20462;-56
2022/11/24 12:15:47;;;;;;;;;;;;;;;;;;4984858;28;19925;-58
2022/11/24 12:18:14;;;;;;;;;;;;;;;;;;5005029;28;20008;-59
2022/11/24 12:20:40;;;;;;;;;;;;;;;;;;5004842;28;19934;-58
2022/11/24 12:23:08;;;;;;;;;;;;;;;;;;5004798;28;19929;-58
2022/11/24 12:25:34;;;;;;;;;;;;;;;;;;5006233;28;19933;-59
2022/11/24 12:28:00;;;;;;;;;;;;;;;;;;5004898;28;20389;-59
2022/11/24 12:30:26;;;;;;;;;;;;;;;;;;5004354;28;19930;-58
2022/11/24 12:32:52;;;;;;;;;;;;;;;;;;5004535;28;20342;-58
2022/11/24 12:35:18;;;;;;;;;;;;;;;;;;5005139;28;19940;-59
2022/11/24 12:37:44;;;;;;;;;;;;;;;;;;5005163;28;19929;-59
2022/11/24 12:40:10;;;;;;;;;;;;;;;;;;4987950;28;19925;-59
2022/11/24 12:42:36;;;;;;;;;;;;;;;;;;5003411;28;19929;-58
2022/11/24 12:45:03;;;;;;;;;;;;;;;;;;5004883;28;19929;-59
2022/11/24 12:47:29;;;;;;;;;;;;;;;;;;5004581;28;19969;-58
2022/11/24 12:49:55;;;;;;;;;;;;;;;;;;5005189;28;19968;-58
2022/11/24 12:52:21;;;;;;;;;;;;;;;;;;5006224;28;19984;-58
2022/11/24 12:54:47;;;;;;;;;;;;;;;;;;5005788;28;19925;-59
2022/11/24 12:57:13;;;;;;;;;;;;;;;;;;5005217;28;19929;-59
2022/11/24 12:59:39;;;;;;;;;;;;;;;;;;5005484;28;19929;-59
2022/11/24 13:02:05;;;;;;;;;;;;;;;;;;5004771;28;20275;-57
2022/11/24 13:04:31;;;;;;;;;;;;;;;;;;5004978;28;20347;-56
2022/11/24 13:06:57;;;;;;;;;;;;;;;;;;5005298;28;19930;-59
2022/11/24 13:09:23;;;;;;;;;;;;;;;;;;5004930;28;19929;-59
2022/11/24 13:11:49;;;;;;;;;;;;;;;;;;5003978;28;19929;-59
2022/11/24 13:14:15;;;;;;;;;;;;;;;;;;5005122;28;20007;-59
2022/11/24 13:16:41;;;;;;;;;;;;;;;;;;5004538;28;20402;-59
2022/11/24 13:19:07;;;;;;;;;;;;;;;;;;4998934;28;20380;-59
2022/11/24 13:21:34;;;;;;;;;;;;;;;;;;5002199;28;19926;-58
2022/11/24 13:24:00;;;;;;;;;;;;;;;;;;5007336;28;20000;-55
2022/11/24 13:26:26;;;;;;;;;;;;;;;;;;5007048;28;19930;-60
2022/11/24 13:28:52;;;;;;;;;;;;;;;;;;4989622;28;19932;-59
2022/11/24 13:31:18;;;;;;;;;;;;;;;;;;5006130;28;19930;-59
2022/11/24 13:33:45;;;;;;;;;;;;;;;;;;5004451;28;19935;-55
2022/11/24 13:36:11;;;;;;;;;;;;;;;;;;5005667;28;19926;-59
2022/11/24 13:38:37;;;;;;;;;;;;;;;;;;5005100;28;19925;-58
2022/11/24 13:41:03;;;;;;;;;;;;;;;;;;5002734;28;19983;-59
2022/11/24 13:43:29;;;;;;;;;;;;;;;;;;5001684;28;20348;-58
2022/11/24 13:45:55;;;;;;;;;;;;;;;;;;5003977;28;19932;-59
2022/11/24 13:48:21;;;;;;;;;;;;;;;;;;5003537;28;20016;-59
2022/11/24 13:50:47;;;;;;;;;;;;;;;;;;5004301;28;20017;-60
2022/11/24 13:53:13;;;;;;;;;;;;;;;;;;5004775;28;20283;-59
2022/11/24 13:55:39;;;;;;;;;;;;;;;;;;5004157;28;19936;-59
2022/11/24 13:58:05;;;;;;;;;;;;;;;;;;5004370;28;20012;-57
2022/11/24 14:00:31;;;;;;;;;;;;;;;;;;5005323;28;19960;-58
2022/11/24 14:02:57;;;;;;;;;;;;;;;;;;5011872;28;19934;-59
2022/11/24 14:05:23;;;;;;;;;;;;;;;;;;5010939;28;20291;-59
2022/11/24 14:07:49;;;;;;;;;;;;;;;;;;5010397;28;19936;-59
2022/11/24 14:10:15;;;;;;;;;;;;;;;;;;5010231;28;19929;-58
2022/11/24 14:12:42;;;;;;;;;;;;;;;;;;5007996;28;19929;-57
2022/11/24 14:15:08;;;;;;;;;;;;;;;;;;5010481;28;19933;-59
2022/11/24 14:17:34;;;;;;;;;;;;;;;;;;5010568;28;19933;-58
2022/11/24 14:20:00;;;;;;;;;;;;;;;;;;5010322;28;19985;-60
2022/11/24 14:22:26;;;;;;;;;;;;;;;;;;5010649;28;20383;-59
2022/11/24 14:24:52;;;;;;;;;;;;;;;;;;5010470;28;20031;-59
2022/11/24 14:27:18;;;;;;;;;;;;;;;;;;5009794;28;19976;-58
2022/11/24 14:29:44;;;;;;;;;;;;;;;;;;5008656;28;20063;-59
2022/11/24 14:32:10;;;;;;;;;;;;;;;;;;5006036;28;20016;-59
2022/11/24 14:34:36;;;;;;;;;;;;;;;;;;4978848;28;19930;-59
2022/11/24 14:37:02;;;;;;;;;;;;;;;;;;5010667;28;19937;-59
2022/11/24 14:39:29;;;;;;;;;;;;;;;;;;5009163;28;20383;-58
2022/11/24 14:41:55;;;;;;;;;;;;;;;;;;5010085;28;19929;-59
2022/11/24 14:44:21;;;;;;;;;;;;;;;;;;5010047;28;19972;-58
2022/11/24 14:46:47;;;;;;;;;;;;;;;;;;4992746;28;19929;-59
2022/11/24 14:49:13;;;;;;;;;;;;;;;;;;5009293;28;19925;-59
2022/11/24 14:51:39;;;;;;;;;;;;;;;;;;5010242;28;19932;-59
2022/11/24 14:54:05;;;;;;;;;;;;;;;;;;5010510;28;20438;-59
2022/11/24 14:56:31;;;;;;;;;;;;;;;;;;5009123;28;19930;-59
2022/11/24 14:58:57;;;;;;;;;;;;;;;;;;5005746;28;19929;-59
2022/11/24 15:01:23;;;;;;;;;;;;;;;;;;5010346;28;20036;-59
2022/11/24 15:03:51;;;;;;;;;;;;;;;;;;5005173;28;19929;-59
2022/11/24 15:06:19;;;;;;;;;;;;;;;;;;5003230;28;19930;-59
2022/11/24 15:08:45;;;;;;;;;;;;;;;;;;5011391;28;20280;-60
2022/11/24 15:11:11;;;;;;;;;;;;;;;;;;5011303;28;19929;-59
2022/11/24 15:13:37;;;;;;;;;;;;;;;;;;4989955;28;19987;-58
2022/11/24 15:16:03;;;;;;;;;;;;;;;;;;5008693;28;20760;-59
2022/11/24 15:18:29;;;;;;;;;;;;;;;;;;5008481;28;19937;-57
2022/11/24 15:20:55;;;;;;;;;;;;;;;;;;5008438;28;19929;-59
2022/11/24 15:23:22;;;;;;;;;;;;;;;;;;5008466;28;19983;-58
2022/11/24 15:25:49;;;;;;;;;;;;;;;;;;5006760;28;20542;-58
2022/11/24 15:28:15;;;;;;;;;;;;;;;;;;5008251;28;19951;-59
2022/11/24 15:30:41;;;;;;;;;;;;;;;;;;5008296;28;20383;-59
2022/11/24 15:33:07;;;;;;;;;;;;;;;;;;5007883;28;19929;-59
2022/11/24 15:35:33;;;;;;;;;;;;;;;;;;5008348;28;19930;-59
2022/11/24 15:37:59;;;;;;;;;;;;;;;;;;5008915;28;20526;-59
2022/11/24 15:40:25;;;;;;;;;;;;;;;;;;5006258;28;19926;-59
2022/11/24 15:42:51;;;;;;;;;;;;;;;;;;5007378;28;19930;-55
2022/11/24 15:45:17;;;;;;;;;;;;;;;;;;5008140;28;19925;-59
2022/11/24 15:47:43;;;;;;;;;;;;;;;;;;5007771;28;20391;-58
2022/11/24 15:50:09;;;;;;;;;;;;;;;;;;5007993;28;20415;-59
2022/11/24 15:52:35;;;;;;;;;;;;;;;;;;5006472;28;19976;-58
2022/11/24 15:55:01;;;;;;;;;;;;;;;;;;4998253;28;19980;-57
2022/11/24 15:57:27;;;;;;;;;;;;;;;;;;5000248;28;19925;-58
2022/11/24 15:59:53;;;;;;;;;;;;;;;;;;5002590;28;19933;-59
2022/11/24 16:02:20;;;;;;;;;;;;;;;;;;5000008;28;20398;-57
2022/11/24 16:04:46;;;;;;;;;;;;;;;;;;5000008;28;19969;-59
2022/11/24 16:07:12;;;;;;;;;;;;;;;;;;5000767;28;19937;-59
2022/11/24 16:09:38;;;;;;;;;;;;;;;;;;5000537;28;19972;-59
2022/11/24 16:12:06;;;;;;;;;;;;;;;;;;4982098;28;19933;-58
2022/11/24 16:14:32;;;;;;;;;;;;;;;;;;4999442;28;19971;-59
2022/11/24 16:16:58;;;;;;;;;;;;;;;;;;5000001;28;19965;-59
2022/11/24 16:19:24;;;;;;;;;;;;;;;;;;5000596;28;20045;-55
2022/11/24 16:24:48;;;;;;;;;;;;;;;;;;4995080;28;20702;-59
2022/11/24 16:27:14;;;;;;;;;;;;;;;;;;5003611;28;19933;-59
2022/11/24 16:29:40;;;;;;;;;;;;;;;;;;5003278;28;20409;-59
2022/11/24 16:32:06;;;;;;;;;;;;;;;;;;5003648;28;19929;-59
2022/11/24 16:34:32;;;;;;;;;;;;;;;;;;5003880;28;19925;-56
2022/11/24 16:36:58;;;;;;;;;;;;;;;;;;5002813;28;19979;-59
2022/11/24 16:39:24;;;;;;;;;;;;;;;;;;5004718;28;19936;-58